Rycroft, Canada
Current Conditions -  °F | °C
As of 5:00 AM on Sunday 25 Jan 2015 (Local Time) from CYQU Reporting Station
Few Clouds Few Clouds  
Wind Chill: 33°   Ceiling: Unl
Heat Index: 41°   Visibility: 25mi
Dew Point: 34°   Wind: 14mph
Humidity: 76%   Direction: 250°WSW
Pressure: 29.59"   Gusts: NA
Location:  55.77°N, 118.72°W
Report Text: CYQU 251200Z 25012KT 25SM FEW200 05/01 A2959 RMK CI2 SLP045
Loading
Personal Weather Stations






























Interactive Weather Map New forecast layout! Learn more

10-Day Weather Forecast

Advertisements
Track Severe Weather on mobile